createdAt,value
2023-05-24T00:00:29.922Z,45.63
2023-05-24T00:02:58.055Z,45.95
2023-05-24T00:05:25.894Z,45.95
2023-05-24T00:07:55.060Z,45.87
2023-05-24T00:10:22.795Z,46.44
2023-05-24T00:12:50.555Z,46.16
2023-05-24T00:15:18.323Z,46.04
2023-05-24T00:17:46.284Z,46.17
2023-05-24T00:20:14.604Z,46.20
2023-05-24T00:22:43.171Z,46.13
2023-05-24T00:25:12.361Z,46.01
2023-05-24T00:27:40.175Z,46.27
2023-05-24T00:30:09.017Z,46.47
2023-05-24T00:32:36.888Z,46.02
2023-05-24T00:35:05.382Z,46.41
2023-05-24T00:37:33.126Z,46.24
2023-05-24T00:40:00.883Z,46.44
2023-05-24T00:42:29.992Z,46.23
2023-05-24T00:44:57.717Z,45.97
2023-05-24T00:47:25.654Z,46.30
2023-05-24T00:49:53.498Z,46.33
2023-05-24T00:52:21.490Z,46.53
2023-05-24T00:54:49.786Z,46.28
2023-05-24T00:57:18.943Z,46.43
2023-05-24T00:59:48.330Z,46.36
2023-05-24T01:02:17.048Z,46.32
2023-05-24T01:04:45.069Z,46.43
2023-05-24T01:07:21.601Z,46.91
2023-05-24T01:10:02.678Z,46.51
2023-05-24T01:12:37.943Z,46.71
2023-05-24T01:15:12.906Z,46.71
2023-05-24T01:17:49.443Z,47.04
2023-05-24T01:20:19.688Z,46.68
2023-05-24T01:23:31.070Z,46.57
2023-05-24T01:26:22.232Z,46.93
2023-05-24T01:28:52.072Z,46.66
2023-05-24T01:31:21.247Z,46.54
2023-05-24T01:33:49.162Z,47.04
2023-05-24T01:36:16.892Z,46.81
2023-05-24T01:38:45.022Z,47.00
2023-05-24T01:41:24.552Z,46.85
2023-05-24T01:43:59.039Z,47.06
2023-05-24T01:46:35.963Z,46.72
2023-05-24T01:49:12.575Z,46.98
2023-05-24T01:51:49.163Z,47.42
2023-05-24T01:54:21.039Z,46.93
2023-05-24T01:56:50.102Z,47.39
2023-05-24T01:59:20.246Z,47.21
2023-05-24T02:01:48.715Z,46.98
2023-05-24T02:04:16.996Z,47.21
2023-05-24T02:06:44.809Z,47.23
2023-05-24T02:09:12.553Z,47.17
2023-05-24T02:11:40.492Z,47.51
2023-05-24T02:14:08.272Z,47.64
2023-05-24T02:16:42.867Z,47.67
2023-05-24T02:19:10.896Z,47.49
2023-05-24T02:21:38.677Z,47.84
2023-05-24T02:24:07.687Z,47.86
2023-05-24T02:26:35.812Z,47.57
2023-05-24T02:29:03.755Z,47.68
2023-05-24T02:31:31.679Z,47.87
2023-05-24T02:34:00.943Z,47.88
2023-05-24T02:36:28.956Z,47.90
2023-05-24T02:38:56.809Z,47.84
2023-05-24T02:41:24.554Z,47.49
2023-05-24T02:43:52.286Z,48.04
2023-05-24T02:46:20.039Z,47.92
2023-05-24T02:48:49.639Z,47.58
2023-05-24T02:51:18.753Z,47.96
2023-05-24T02:53:46.476Z,48.02
2023-05-24T02:56:17.396Z,48.13
2023-05-24T02:58:46.087Z,47.90
2023-05-24T03:01:14.110Z,48.15
2023-05-24T03:03:42.173Z,47.70
2023-05-24T03:06:10.054Z,48.25
2023-05-24T03:08:39.148Z,47.80
2023-05-24T03:11:07.076Z,48.02
2023-05-24T03:13:34.858Z,48.38
2023-05-24T03:16:02.633Z,48.31
2023-05-24T03:18:30.501Z,48.29
2023-05-24T03:20:58.314Z,48.35
2023-05-24T03:23:26.053Z,48.12
2023-05-24T03:25:55.162Z,48.33
2023-05-24T03:28:23.203Z,48.13
2023-05-24T03:30:50.960Z,48.15
2023-05-24T03:33:18.708Z,48.51
2023-05-24T03:35:46.622Z,48.47
2023-05-24T03:38:14.328Z,48.71
2023-05-24T03:40:42.288Z,48.60
2023-05-24T03:43:11.976Z,48.57
2023-05-24T03:45:40.290Z,48.29
2023-05-24T03:48:08.197Z,48.59
2023-05-24T03:50:36.451Z,48.41
2023-05-24T03:53:04.300Z,48.35
2023-05-24T03:55:32.134Z,48.44
2023-05-24T03:57:59.937Z,48.61
2023-05-24T04:00:29.068Z,48.75
2023-05-24T04:02:56.953Z,48.86
2023-05-24T04:05:27.090Z,48.46
2023-05-24T04:07:54.998Z,48.44
2023-05-24T04:10:22.916Z,48.70
2023-05-24T04:12:50.824Z,48.69
2023-05-24T04:15:18.756Z,48.53
2023-05-24T04:17:48.538Z,48.86
2023-05-24T04:20:16.468Z,48.79
2023-05-24T04:22:44.184Z,49.08
2023-05-24T04:25:12.005Z,48.83
2023-05-24T04:27:39.917Z,48.61
2023-05-24T04:30:09.314Z,48.94
2023-05-24T04:32:37.153Z,48.68
2023-05-24T04:35:07.234Z,49.03
2023-05-24T04:37:34.985Z,48.92
2023-05-24T04:40:04.288Z,48.90
2023-05-24T04:42:32.513Z,49.29
2023-05-24T04:45:00.314Z,49.08
2023-05-24T04:47:28.081Z,49.48
2023-05-24T04:49:55.868Z,49.48
2023-05-24T04:52:25.002Z,49.41
2023-05-24T04:54:52.915Z,49.23
2023-05-24T04:57:20.687Z,49.75
2023-05-24T04:59:48.492Z,49.62
2023-05-24T05:02:16.455Z,49.82
2023-05-24T05:04:44.268Z,49.94
2023-05-24T05:07:12.040Z,49.78
2023-05-24T05:09:41.261Z,49.68
2023-05-24T05:12:09.344Z,50.08
2023-05-24T05:14:37.083Z,49.90
2023-05-24T05:17:04.965Z,50.07
2023-05-24T05:19:32.722Z,50.13
2023-05-24T05:22:00.679Z,49.85
2023-05-24T05:24:28.476Z,49.93
2023-05-24T05:26:57.581Z,49.71
2023-05-24T05:29:25.317Z,50.30
2023-05-24T05:31:53.149Z,49.72
2023-05-24T05:34:21.286Z,50.00
2023-05-24T05:36:49.098Z,50.44
2023-05-24T05:39:16.853Z,50.05
2023-05-24T05:41:46.412Z,50.18
2023-05-24T05:44:16.269Z,50.60
2023-05-24T05:46:46.142Z,50.46
2023-05-24T05:49:15.327Z,51.85
2023-05-24T05:51:43.366Z,51.59
2023-05-24T05:54:15.469Z,51.22
2023-05-24T05:56:45.696Z,51.76
2023-05-24T05:59:13.660Z,51.05
2023-05-24T06:01:42.846Z,51.02
2023-05-24T06:04:11.062Z,51.07
2023-05-24T06:06:38.906Z,51.12
2023-05-24T06:09:06.787Z,51.33
2023-05-24T06:11:34.550Z,51.20
2023-05-24T06:14:02.659Z,51.21
2023-05-24T06:16:32.544Z,51.75
2023-05-24T06:19:06.297Z,52.07
2023-05-24T06:21:36.607Z,51.91
2023-05-24T06:24:04.687Z,51.84
2023-05-24T06:26:32.410Z,51.85
2023-05-24T06:29:00.166Z,52.01
2023-05-24T06:31:27.960Z,52.07
2023-05-24T06:34:03.715Z,51.97
2023-05-24T06:36:35.940Z,51.84
2023-05-24T06:39:04.090Z,51.77
2023-05-24T06:41:31.856Z,51.82
2023-05-24T06:43:59.744Z,52.17
2023-05-24T06:46:27.645Z,52.27
2023-05-24T06:48:55.543Z,52.12
2023-05-24T06:51:23.439Z,51.91
2023-05-24T06:53:53.008Z,52.17
2023-05-24T06:56:21.487Z,52.33
2023-05-24T06:58:49.284Z,52.26
2023-05-24T07:01:17.183Z,52.22
2023-05-24T07:03:45.026Z,52.27
2023-05-24T07:06:14.188Z,52.29
2023-05-24T07:08:42.223Z,52.67
2023-05-24T07:11:11.494Z,52.80
2023-05-24T07:13:39.798Z,52.59
2023-05-24T07:16:08.064Z,52.95
2023-05-24T07:18:35.862Z,52.91
2023-05-24T07:21:03.655Z,52.67
2023-05-24T07:23:32.404Z,53.10
2023-05-24T07:26:00.198Z,52.72
2023-05-24T07:28:29.282Z,52.79
2023-05-24T07:30:57.066Z,52.96
2023-05-24T07:33:24.869Z,52.75
2023-05-24T07:35:52.650Z,52.53
2023-05-24T07:38:21.087Z,52.02
2023-05-24T07:40:49.070Z,52.33
2023-05-24T07:43:16.843Z,52.31
2023-05-24T07:45:45.964Z,51.97
2023-05-24T07:48:13.770Z,52.17
2023-05-24T07:50:41.995Z,51.80
2023-05-24T07:53:09.938Z,52.10
2023-05-24T07:55:37.846Z,51.97
2023-05-24T07:58:05.691Z,51.86
2023-05-24T08:00:33.806Z,51.99
2023-05-24T08:03:03.222Z,51.19
2023-05-24T08:05:31.082Z,51.56
2023-05-24T08:07:59.106Z,51.26
2023-05-24T08:10:27.566Z,51.45
2023-05-24T08:12:56.176Z,51.49
2023-05-24T08:15:24.155Z,51.38
2023-05-24T08:17:52.001Z,51.35
2023-05-24T08:20:21.429Z,51.09
2023-05-24T08:22:49.414Z,51.14
2023-05-24T08:25:17.270Z,50.93
2023-05-24T08:27:45.040Z,51.10
2023-05-24T08:30:14.205Z,50.65
2023-05-24T08:32:42.042Z,50.62
2023-05-24T08:35:19.513Z,50.67
2023-05-24T08:37:50.113Z,50.27
2023-05-24T08:40:18.205Z,50.67
2023-05-24T08:42:46.940Z,50.86
2023-05-24T08:45:16.257Z,50.40
2023-05-24T08:47:44.656Z,50.27
2023-05-24T08:50:12.775Z,50.60
2023-05-24T08:52:42.667Z,50.07
2023-05-24T08:55:12.873Z,50.30
2023-05-24T08:57:41.397Z,49.99
2023-05-24T09:00:12.825Z,50.44
2023-05-24T09:02:42.237Z,50.48
2023-05-24T09:05:12.569Z,50.37
2023-05-24T09:07:41.842Z,50.33
2023-05-24T09:10:11.835Z,50.01
2023-05-24T09:12:41.685Z,49.71
2023-05-24T09:15:10.064Z,49.75
2023-05-24T09:17:38.899Z,50.29
2023-05-24T09:20:11.421Z,50.37
2023-05-24T09:22:42.815Z,49.93
2023-05-24T09:25:14.908Z,49.93
2023-05-24T09:27:46.151Z,50.83
2023-05-24T09:30:16.443Z,50.91
2023-05-24T09:32:57.109Z,50.59
2023-05-24T09:35:26.774Z,49.99
2023-05-24T09:37:57.299Z,50.00
2023-05-24T09:40:27.106Z,50.02
2023-05-24T09:43:05.898Z,49.65
2023-05-24T09:45:33.680Z,49.50
2023-05-24T09:48:04.978Z,49.72
2023-05-24T09:50:32.988Z,49.55
2023-05-24T09:53:01.057Z,49.67
2023-05-24T09:55:31.041Z,49.22
2023-05-24T09:58:04.545Z,49.09
2023-05-24T10:00:36.702Z,49.10
2023-05-24T10:03:07.151Z,49.30
2023-05-24T10:05:36.360Z,48.55
2023-05-24T10:08:05.721Z,48.43
2023-05-24T10:10:35.098Z,48.20
2023-05-24T10:13:03.867Z,48.40
2023-05-24T10:15:31.832Z,48.77
2023-05-24T10:18:00.530Z,48.30
2023-05-24T10:20:28.640Z,48.14
2023-05-24T10:23:01.743Z,47.70
2023-05-24T10:25:30.798Z,47.95
2023-05-24T10:28:04.358Z,48.33
2023-05-24T10:30:37.578Z,47.88
2023-05-24T10:33:08.594Z,47.78
2023-05-24T10:35:38.062Z,47.46
2023-05-24T10:38:07.735Z,47.86
2023-05-24T10:40:36.261Z,47.70
2023-05-24T10:43:07.127Z,47.82
2023-05-24T10:45:38.104Z,48.09
2023-05-24T10:48:33.718Z,48.62
2023-05-24T10:51:04.548Z,47.89
2023-05-24T10:53:40.972Z,47.73
2023-05-24T10:56:10.550Z,47.94
2023-05-24T10:58:59.543Z,46.79
2023-05-24T11:01:28.373Z,47.03
2023-05-24T11:04:08.529Z,46.66
2023-05-24T11:06:50.389Z,46.68
2023-05-24T11:09:20.200Z,46.62
2023-05-24T11:11:49.936Z,46.96
2023-05-24T11:14:22.886Z,47.52
2023-05-24T11:19:20.476Z,47.24
2023-05-24T11:21:49.672Z,47.43
2023-05-24T11:24:18.442Z,47.46
2023-05-24T11:26:46.967Z,46.95
2023-05-24T11:29:17.805Z,46.58
2023-05-24T11:31:51.239Z,46.10
2023-05-24T11:34:19.385Z,46.00
2023-05-24T11:36:47.962Z,46.46
2023-05-24T11:39:16.645Z,47.01
2023-05-24T11:41:44.785Z,46.71
2023-05-24T11:44:13.557Z,46.71
2023-05-24T11:46:44.122Z,46.61
2023-05-24T11:49:15.936Z,46.74
2023-05-24T11:51:44.642Z,46.78
2023-05-24T11:54:12.681Z,46.74
2023-05-24T11:56:40.548Z,46.09
2023-05-24T11:59:15.874Z,46.51
2023-05-24T12:01:43.925Z,46.26
2023-05-24T12:04:12.936Z,46.55
2023-05-24T12:06:44.423Z,46.12
2023-05-24T12:09:14.347Z,46.41
2023-05-24T12:11:43.164Z,46.38
2023-05-24T12:14:14.580Z,46.50
2023-05-24T12:16:43.480Z,46.55
2023-05-24T12:19:31.753Z,46.46
2023-05-24T12:22:06.016Z,46.44
2023-05-24T12:24:33.875Z,46.07
2023-05-24T12:27:03.466Z,45.85
2023-05-24T12:29:35.055Z,46.46
2023-05-24T12:32:03.780Z,46.34
2023-05-24T12:34:31.600Z,46.81
2023-05-24T12:37:00.683Z,46.93
2023-05-24T12:39:31.787Z,46.93
2023-05-24T12:42:01.864Z,46.72
2023-05-24T12:44:31.359Z,46.61
2023-05-24T12:46:59.894Z,46.48
2023-05-24T12:49:27.897Z,46.57
2023-05-24T12:51:56.676Z,46.56
2023-05-24T12:54:25.537Z,47.10
2023-05-24T12:56:57.264Z,47.13
2023-05-24T12:59:25.718Z,47.41
2023-05-24T13:01:53.979Z,47.43
2023-05-24T13:04:24.354Z,47.34
2023-05-24T13:06:52.218Z,47.44
2023-05-24T13:09:21.852Z,47.33
2023-05-24T13:11:50.286Z,47.52
2023-05-24T13:14:20.806Z,47.39
2023-05-24T13:16:49.098Z,47.41
2023-05-24T13:19:17.321Z,47.47
2023-05-24T13:21:45.524Z,47.19
2023-05-24T13:24:14.698Z,47.21
2023-05-24T13:26:42.495Z,47.46
2023-05-24T13:31:42.808Z,47.19
2023-05-24T13:34:11.318Z,47.05
2023-05-24T13:36:39.769Z,47.60
2023-05-24T13:41:41.293Z,47.72
2023-05-24T13:44:09.858Z,47.44
2023-05-24T13:46:38.322Z,47.64
2023-05-24T13:49:09.245Z,46.74
2023-05-24T13:51:37.333Z,46.54
2023-05-24T13:54:07.217Z,46.68
2023-05-24T13:56:35.381Z,47.08
2023-05-24T13:59:05.251Z,47.29
2023-05-24T14:01:33.671Z,47.43
2023-05-24T14:04:02.587Z,47.45
2023-05-24T14:06:31.971Z,47.09
2023-05-24T14:09:00.337Z,46.98
2023-05-24T14:11:31.445Z,46.74
2023-05-24T14:16:31.061Z,46.74
2023-05-24T14:18:59.208Z,46.59
2023-05-24T14:21:27.363Z,46.74
2023-05-24T14:23:57.967Z,46.30
2023-05-24T14:26:25.735Z,46.02
2023-05-24T14:28:56.273Z,45.88
2023-05-24T14:31:25.172Z,46.17
2023-05-24T14:33:53.093Z,46.16
2023-05-24T14:36:20.886Z,45.90
2023-05-24T14:38:48.644Z,45.73
2023-05-24T14:41:17.808Z,45.89
2023-05-24T14:43:45.536Z,45.85
2023-05-24T14:46:13.358Z,45.80
2023-05-24T14:48:41.796Z,46.05
2023-05-24T14:51:09.682Z,46.17
2023-05-24T14:53:37.465Z,45.81
2023-05-24T14:56:07.516Z,45.24
2023-05-24T14:58:37.036Z,45.28
2023-05-24T15:01:04.920Z,45.77
2023-05-24T15:03:32.976Z,45.77
2023-05-24T15:06:01.010Z,45.34
2023-05-24T15:08:28.780Z,45.25
2023-05-24T15:10:58.728Z,45.32
2023-05-24T15:13:26.974Z,45.54
2023-05-24T15:16:00.235Z,45.68
2023-05-24T15:18:28.978Z,45.94
2023-05-24T15:20:57.093Z,46.30
2023-05-24T15:23:25.809Z,46.22
2023-05-24T15:25:53.619Z,45.85
2023-05-24T15:28:22.109Z,45.78
2023-05-24T15:30:50.760Z,45.61
2023-05-24T15:33:19.922Z,45.63
2023-05-24T15:35:47.774Z,45.72
2023-05-24T15:38:17.576Z,45.54
2023-05-24T15:40:46.231Z,45.62
2023-05-24T15:43:15.547Z,45.76
2023-05-24T15:45:44.037Z,45.92
2023-05-24T15:48:12.814Z,45.88
2023-05-24T15:53:12.732Z,46.02
2023-05-24T15:55:40.551Z,45.83
2023-05-24T15:58:08.330Z,46.07
2023-05-24T16:00:36.122Z,46.01
2023-05-24T16:03:03.950Z,45.87
2023-05-24T16:05:31.853Z,45.75
2023-05-24T16:08:02.540Z,45.86
2023-05-24T16:10:30.829Z,45.91
2023-05-24T16:12:58.692Z,45.74
2023-05-24T16:15:26.925Z,45.73
2023-05-24T16:17:54.883Z,45.60
2023-05-24T16:20:22.834Z,45.90
2023-05-24T16:22:50.788Z,45.72
2023-05-24T16:25:19.883Z,45.77
2023-05-24T16:27:47.651Z,45.73
2023-05-24T16:30:15.644Z,45.87
2023-05-24T16:32:45.238Z,45.99
2023-05-24T16:35:13.155Z,45.72
2023-05-24T16:37:40.975Z,45.88
2023-05-24T16:40:09.520Z,45.87
2023-05-24T16:42:38.655Z,45.78
2023-05-24T16:45:07.559Z,45.79
2023-05-24T16:47:35.905Z,45.67
2023-05-24T16:50:03.959Z,45.61
2023-05-24T16:52:31.707Z,45.90
2023-05-24T16:55:00.045Z,45.80
2023-05-24T16:57:27.877Z,45.84
2023-05-24T16:59:58.204Z,45.93
2023-05-24T17:02:26.444Z,45.85
2023-05-24T17:04:54.382Z,45.82
2023-05-24T17:07:22.376Z,45.96
2023-05-24T17:09:51.506Z,45.84
2023-05-24T17:12:21.103Z,45.73
2023-05-24T17:14:48.938Z,45.91
2023-05-24T17:17:18.082Z,46.00
2023-05-24T17:19:45.850Z,46.23
2023-05-24T17:22:13.981Z,46.14
2023-05-24T17:24:41.708Z,46.13
2023-05-24T17:27:09.479Z,46.15
2023-05-24T17:29:37.264Z,46.04
2023-05-24T17:32:05.626Z,45.92
2023-05-24T17:34:34.826Z,46.10
2023-05-24T17:37:02.717Z,46.32
2023-05-24T17:39:30.788Z,46.08
2023-05-24T17:41:58.618Z,46.03
2023-05-24T17:44:26.356Z,45.90
2023-05-24T17:46:54.321Z,45.60
2023-05-24T17:49:22.101Z,45.77
2023-05-24T17:51:51.249Z,45.89
2023-05-24T17:54:19.063Z,45.66
2023-05-24T17:56:46.875Z,45.68
2023-05-24T17:59:14.612Z,45.74
2023-05-24T18:01:43.089Z,45.75
2023-05-24T18:04:11.145Z,45.87
2023-05-24T18:06:38.955Z,45.89
2023-05-24T18:09:08.459Z,46.07
2023-05-24T18:11:36.674Z,45.97
2023-05-24T18:14:04.531Z,46.19
2023-05-24T18:16:32.417Z,46.04
2023-05-24T18:19:00.273Z,46.22
2023-05-24T18:21:28.044Z,46.26
2023-05-24T18:23:55.767Z,46.49
2023-05-24T18:26:24.915Z,46.39
2023-05-24T18:28:52.701Z,46.63
2023-05-24T18:31:20.631Z,46.63
2023-05-24T18:33:48.420Z,46.64
2023-05-24T18:36:16.547Z,46.72
2023-05-24T18:38:47.184Z,46.81
2023-05-24T18:41:16.509Z,46.88
2023-05-24T18:43:45.699Z,46.80
2023-05-24T18:46:14.886Z,47.11
2023-05-24T18:48:43.357Z,46.79
2023-05-24T18:51:11.316Z,46.64
2023-05-24T18:53:40.124Z,46.62
2023-05-24T18:56:08.076Z,46.58
2023-05-24T18:58:35.880Z,46.77
2023-05-24T19:01:05.115Z,46.67
2023-05-24T19:03:33.075Z,46.86
2023-05-24T19:06:00.853Z,46.89
2023-05-24T19:08:28.699Z,46.81
2023-05-24T19:10:56.443Z,46.69
2023-05-24T19:13:24.199Z,46.76
2023-05-24T19:15:53.547Z,46.75
2023-05-24T19:18:23.058Z,46.80
2023-05-24T19:20:50.978Z,46.72
2023-05-24T19:23:18.785Z,46.78
2023-05-24T19:25:50.087Z,46.92
2023-05-24T19:28:18.220Z,46.86
2023-05-24T19:30:45.972Z,46.96
2023-05-24T19:33:13.814Z,47.11
2023-05-24T19:35:43.122Z,47.20
2023-05-24T19:38:12.051Z,46.98
2023-05-24T19:40:39.843Z,47.21
2023-05-24T19:43:07.683Z,47.24
2023-05-24T19:45:35.389Z,47.21
2023-05-24T19:48:04.937Z,47.26
2023-05-24T19:50:32.906Z,47.16
2023-05-24T19:53:02.004Z,47.27
2023-05-24T19:55:30.174Z,47.22
2023-05-24T19:57:57.937Z,47.28
2023-05-24T20:00:25.861Z,47.27
2023-05-24T20:02:53.840Z,47.37
2023-05-24T20:05:21.728Z,47.30
2023-05-24T20:07:49.571Z,47.25
2023-05-24T20:10:18.766Z,47.32
2023-05-24T20:12:46.665Z,47.28
2023-05-24T20:15:17.295Z,47.34
2023-05-24T20:17:46.496Z,47.40
2023-05-24T20:20:14.439Z,47.48
2023-05-24T20:22:42.411Z,47.37
2023-05-24T20:25:10.288Z,47.38
2023-05-24T20:27:41.787Z,47.42
2023-05-24T20:30:10.354Z,47.31
2023-05-24T20:32:38.160Z,47.22
2023-05-24T20:35:07.137Z,47.51
2023-05-24T20:37:35.035Z,47.45
2023-05-24T20:40:03.520Z,47.40
2023-05-24T20:42:31.836Z,47.50
2023-05-24T20:45:01.173Z,47.47
2023-05-24T20:47:30.438Z,47.46
2023-05-24T20:49:58.309Z,47.40
2023-05-24T20:52:26.041Z,47.47
2023-05-24T20:54:53.854Z,47.45
2023-05-24T20:57:21.572Z,47.50
2023-05-24T20:59:49.395Z,47.62
2023-05-24T21:02:18.666Z,47.45
2023-05-24T21:04:46.452Z,47.66
2023-05-24T21:07:14.174Z,47.53
2023-05-24T21:09:41.945Z,47.50
2023-05-24T21:12:09.868Z,47.58
2023-05-24T21:14:37.632Z,47.49
2023-05-24T21:17:05.654Z,47.50
2023-05-24T21:19:34.780Z,47.47
2023-05-24T21:22:02.605Z,47.67
2023-05-24T21:24:30.412Z,47.56
2023-05-24T21:26:58.174Z,47.74
2023-05-24T21:29:25.975Z,47.71
2023-05-24T21:31:53.732Z,47.69
2023-05-24T21:34:21.495Z,47.65
2023-05-24T21:36:50.711Z,47.66
2023-05-24T21:39:19.053Z,47.76
2023-05-24T21:41:46.830Z,47.84
2023-05-24T21:44:14.594Z,47.87
2023-05-24T21:46:42.385Z,48.02
2023-05-24T21:49:10.181Z,47.99
2023-05-24T21:51:38.408Z,47.92
2023-05-24T21:54:07.614Z,48.14
2023-05-24T21:56:35.394Z,47.95
2023-05-24T21:59:03.132Z,48.34
2023-05-24T22:01:30.982Z,48.18
2023-05-24T22:03:59.310Z,48.36
2023-05-24T22:06:27.096Z,48.42
2023-05-24T22:08:55.501Z,48.52
2023-05-24T22:11:24.688Z,48.30
2023-05-24T22:13:52.462Z,48.82
2023-05-24T22:16:20.464Z,48.49
2023-05-24T22:18:48.929Z,48.64
2023-05-24T22:21:18.649Z,48.86
2023-05-24T22:23:46.391Z,48.81
2023-05-24T22:26:17.137Z,49.07
2023-05-24T22:28:54.761Z,49.07
2023-05-24T22:31:24.010Z,49.08
2023-05-24T22:33:52.126Z,49.16
2023-05-24T22:36:20.926Z,49.12
2023-05-24T22:38:48.721Z,49.48
2023-05-24T22:41:16.546Z,49.70
2023-05-24T22:43:44.283Z,49.37
2023-05-24T22:46:13.470Z,49.71
2023-05-24T22:48:41.326Z,49.68
2023-05-24T22:51:09.157Z,50.07
2023-05-24T22:53:39.311Z,49.88
2023-05-24T22:56:07.854Z,50.09
2023-05-24T22:58:35.631Z,50.25
2023-05-24T23:01:03.481Z,50.11
2023-05-24T23:03:32.757Z,50.11
2023-05-24T23:06:04.034Z,50.30
2023-05-24T23:08:32.713Z,50.32
2023-05-24T23:11:01.023Z,50.45
2023-05-24T23:13:33.092Z,50.56
2023-05-24T23:16:01.067Z,50.40
2023-05-24T23:18:28.884Z,50.50
2023-05-24T23:20:58.008Z,50.82
2023-05-24T23:23:25.807Z,50.61
2023-05-24T23:25:53.656Z,51.09
2023-05-24T23:28:21.378Z,50.98
2023-05-24T23:30:49.173Z,51.06
2023-05-24T23:33:17.028Z,51.24
2023-05-24T23:35:45.074Z,51.40
2023-05-24T23:38:14.978Z,51.29
2023-05-24T23:40:42.906Z,51.39
2023-05-24T23:43:10.653Z,51.29
2023-05-24T23:45:38.378Z,51.62
2023-05-24T23:48:06.427Z,51.52
2023-05-24T23:50:46.282Z,51.61
2023-05-24T23:53:22.442Z,51.41
2023-05-24T23:55:50.218Z,51.65
2023-05-24T23:58:17.956Z,51.51
